This is the latest recevied weather packets stored in our database for station/object Huerbel. If no packets are shown the sender has not sent any weather packets the latest 1 day(s).
| Time | Temp. | Humidity | Pressure | Rain* | Wind** | Luminosity | Snow |
|---|---|---|---|---|---|---|---|
| 1777993336 | 17.22° C | 64% | 1008.1 hPa | 0 mm | 3.58 m/s, 343° | - | - |
| 1777991532 | 16.67° C | 63% | 1008.4 hPa | 0 mm | 4.92 m/s, 330° | - | - |
| 1777989730 | 16.11° C | 66% | 1008.2 hPa | 0 mm | 3.58 m/s, 341° | - | - |
| 1777987930 | 16.67° C | 67% | 1008.3 hPa | 0 mm | 4.47 m/s, 348° | - | - |
| 1777986130 | 16.11° C | 75% | 1008.7 hPa | 0 mm | 1.79 m/s, 351° | - | - |
| 1777984330 | 15.56° C | 76% | 1009 hPa | 0 mm | 1.79 m/s, 269° | - | - |
| 1777982530 | 15.56° C | 75% | 1009.2 hPa | 0 mm | 3.13 m/s, 251° | - | - |
| 1777980730 | 16.67° C | 66% | 1008.9 hPa | 0 mm | 5.81 m/s, 223° | - | - |
| 1777978931 | 17.22° C | 66% | 1008.4 hPa | 0 mm | 2.68 m/s, 355° | - | - |
| 1777977131 | 17.22° C | 66% | 1008.5 hPa | 0 mm | 4.02 m/s, 314° | - | - |
| 1777975332 | 17.78° C | 62% | 1008.6 hPa | 0 mm | 3.58 m/s, 281° | - | - |
| 1777973532 | 18.89° C | 56% | 1008.7 hPa | 0 mm | 2.68 m/s, 271° | - | - |
| 1777971732 | 17.78° C | 62% | 1009.1 hPa | 0 mm | 1.79 m/s, 182° | - | - |
| 1777969931 | 15.56° C | 70% | 1009.4 hPa | 0 mm | 1.79 m/s, 164° | - | - |
| 1777968130 | 15.56° C | 69% | 1009.5 hPa | 0 mm | 2.24 m/s, 140° | - | - |
| 1777966330 | 14.44° C | 76% | 1009.7 hPa | 0 mm | 2.24 m/s, 228° | - | - |
| 1777964531 | 13.33° C | 79% | 1009.9 hPa | 0 mm | 0.89 m/s, 259° | - | - |
| 1777962731 | 10° C | 90% | 1010.4 hPa | 0 mm | 0 m/s | - | - |
| 1777960932 | 7.22° C | 89% | 1010.5 hPa | 0 mm | 0.89 m/s, 169° | - | - |
| 1777959131 | 6.11° C | 87% | 1010.2 hPa | 0 mm | 0 m/s | - | - |
| 1777957331 | 5.56° C | 86% | 1010.4 hPa | 0 mm | 0 m/s | - | - |
| 1777955531 | 5.56° C | 86% | 1010.5 hPa | 0 mm | 0 m/s | - | - |
| 1777953731 | 5.56° C | 85% | 1010.7 hPa | 0 mm | 0 m/s | - | - |
* Rain since midnight (hover to see other rain measurements)
** Current wind speed in m/s (hover to see current wind gust speed)